Terminal Aerodrome Forecast
Issued by NWS Charleston, SC

Home | Current Version | Previous Version | Text Only | Print | Product List | Glossary On
Versions: 1 2 3 4 5 6 7 8 9 10 11 12 13 14 15 16 17 18 19 20 21 22 23 24
000
FTUS42 KCHS 021740
TAFSAV
TAF
KSAV 021740Z 0218/0318 29008KT P6SM SCT035
     FM030100 05007KT P6SM SCT005 BKN012
     FM030500 05006KT 5SM BR SCT003 BKN008
     FM031400 06007KT P6SM BKN008=

USA.gov is the U.S. government's official web portal to all federal, state and local government web resources and services.